Time;durP1;ratioP1;P1;durP2;ratioP2;P2;SDS_P1;SDS_P2;PMS_P1;PMS_P2;Temp;Humidity;BMP_temperature;BMP_pressure;BME280_temperature;BME280_humidity;BME280_pressure;Samples;Min_cycle;Max_cycle;Signal;HPM_P1;HPM_P2
2022/01/25 00:26:05;;;;;;;18.70;12.20;;;6.40;99.90;;;;;;5089612;28;20429;-39
2022/01/25 00:33:44;;;;;;;17.60;13.13;;;5.80;99.90;;;;;;5088735;28;20429;-40
2022/01/25 00:36:13;;;;;;;17.00;13.07;;;6.00;99.90;;;;;;5089833;28;20430;-39
2022/01/25 00:38:40;;;;;;;15.60;11.90;;;5.70;99.90;;;;;;5087847;28;20426;-40
2022/01/25 00:41:06;;;;;;;17.60;14.80;;;5.70;99.90;;;;;;5088775;28;20458;-39
2022/01/25 00:43:32;;;;;;;18.77;12.80;;;5.70;99.90;;;;;;5088035;28;20749;-41
2022/01/25 00:46:01;;;;;;;17.17;13.37;;;5.80;99.90;;;;;;5080075;28;20434;-39
2022/01/25 00:48:49;;;;;;;17.90;13.20;;;5.70;99.90;;;;;;5086957;28;20473;-40
2022/01/25 00:54:09;;;;;;;18.47;14.33;;;5.90;99.90;;;;;;5087780;28;21024;-42
2022/01/25 00:56:38;;;;;;;18.43;14.77;;;5.70;99.90;;;;;;5088934;28;20449;-39
2022/01/25 00:59:07;;;;;;;20.03;13.43;;;5.70;99.90;;;;;;5088880;28;20422;-39
2022/01/25 01:01:35;;;;;;;18.43;14.03;;;5.70;99.90;;;;;;5078455;28;20463;-40
2022/01/25 01:04:01;;;;;;;19.17;14.60;;;5.50;99.90;;;;;;5088331;28;21001;-39
2022/01/25 01:06:27;;;;;;;20.67;14.03;;;5.50;99.90;;;;;;5088581;28;21001;-40
2022/01/25 01:08:53;;;;;;;18.60;14.40;;;5.70;99.90;;;;;;5088438;28;20434;-39
2022/01/25 01:11:31;;;;;;;19.57;14.30;;;5.60;99.90;;;;;;5088335;28;20394;-39
2022/01/25 01:36:07;;;;;;;21.30;15.47;;;5.80;99.90;;;;;;5056009;28;20491;-41
2022/01/25 01:44:00;;;;;;;18.17;13.90;;;5.70;99.90;;;;;;5086689;28;20422;-40
2022/01/25 01:48:59;;;;;;;20.57;14.90;;;5.70;99.90;;;;;;5087738;28;20426;-40
2022/01/25 01:51:33;;;;;;;22.43;15.17;;;5.80;99.90;;;;;;5084712;28;20427;-39
2022/01/25 01:54:19;;;;;;;21.33;14.80;;;5.60;99.90;;;;;;5087963;28;20455;-40
2022/01/25 01:56:45;;;;;;;19.87;14.90;;;5.90;99.90;;;;;;5088119;28;20498;-39
2022/01/25 01:59:16;;;;;;;23.83;15.30;;;6.00;99.90;;;;;;5087699;28;20418;-40
2022/01/25 02:01:44;;;;;;;21.27;16.20;;;5.70;99.90;;;;;;5077188;28;20291;-40
2022/01/25 02:04:11;;;;;;;19.90;15.30;;;5.60;99.90;;;;;;5087620;28;20471;-40
2022/01/25 02:06:37;;;;;;;23.67;14.87;;;5.70;99.90;;;;;;5087594;28;20429;-40
2022/01/25 02:09:05;;;;;;;22.10;15.53;;;5.70;99.90;;;;;;5087455;28;20422;-39
2022/01/25 02:11:31;;;;;;;21.90;15.57;;;5.70;99.90;;;;;;5085846;28;20475;-40
2022/01/25 02:14:03;;;;;;;19.10;15.13;;;5.60;99.90;;;;;;5087312;28;20420;-39
2022/01/25 02:17:08;;;;;;;21.03;14.90;;;5.50;99.90;;;;;;5078058;28;20431;-40
2022/01/25 02:24:49;;;;;;;19.23;14.60;;;5.60;99.90;;;;;;5087330;28;20430;-39
2022/01/25 02:27:16;;;;;;;22.43;15.40;;;5.70;99.90;;;;;;5087396;28;20425;-40
2022/01/25 02:29:42;;;;;;;22.17;16.03;;;5.60;99.90;;;;;;5086604;28;20432;-40
2022/01/25 02:32:08;;;;;;;24.70;16.97;;;5.50;99.90;;;;;;5075415;28;20537;-40
2022/01/25 02:34:34;;;;;;;23.83;16.43;;;5.70;99.90;;;;;;5084723;28;20425;-39
2022/01/25 02:37:11;;;;;;;26.17;16.93;;;5.70;99.90;;;;;;5087757;28;20778;-40
2022/01/25 02:39:38;;;;;;;25.07;16.60;;;5.30;99.90;;;;;;5088415;28;20196;-39
2022/01/25 02:42:08;;;;;;;26.63;17.37;;;5.50;99.90;;;;;;5091324;28;20426;-40
2022/01/25 02:44:35;;;;;;;26.20;17.43;;;5.20;99.90;;;;;;5090152;28;20414;-39
2022/01/25 02:49:34;;;;;;;25.27;17.30;;;5.10;99.90;;;;;;5089805;28;20491;-39
2022/01/25 02:52:02;;;;;;;25.87;17.47;;;5.10;99.90;;;;;;5091279;28;20429;-39
2022/01/25 02:54:28;;;;;;;28.80;18.27;;;5.30;99.90;;;;;;5090999;28;20422;-40
2022/01/25 02:56:55;;;;;;;24.90;18.23;;;5.10;99.90;;;;;;5090114;28;20469;-39
2022/01/25 02:59:21;;;;;;;27.60;17.23;;;5.40;99.90;;;;;;5091328;28;20900;-40
2022/01/25 03:01:49;;;;;;;24.70;16.63;;;5.30;99.90;;;;;;5083678;28;20727;-39
2022/01/25 03:04:17;;;;;;;23.80;15.60;;;5.50;99.90;;;;;;5090959;28;20804;-41
2022/01/25 03:06:43;;;;;;;22.80;17.17;;;5.50;99.90;;;;;;5086464;28;20426;-40
2022/01/25 03:09:09;;;;;;;26.90;17.07;;;5.60;99.90;;;;;;5091459;28;20430;-39
2022/01/25 03:11:35;;;;;;;27.57;17.60;;;5.50;99.90;;;;;;5090444;28;20410;-39
2022/01/25 03:14:04;;;;;;;25.10;17.00;;;5.50;99.90;;;;;;5091239;28;20421;-41
2022/01/25 03:16:45;;;;;;;22.53;16.80;;;5.50;99.90;;;;;;5084723;28;20238;-41
2022/01/25 03:22:19;;;;;;;28.10;19.33;;;5.20;99.90;;;;;;5089514;28;20423;-39
2022/01/25 03:24:46;;;;;;;26.50;16.30;;;5.40;99.90;;;;;;5088301;28;20934;-39
2022/01/25 03:27:12;;;;;;;25.20;17.30;;;5.10;99.90;;;;;;5086341;28;20429;-39
2022/01/25 03:29:37;;;;;;;23.03;17.20;;;5.00;99.90;;;;;;5090370;28;20467;-39
2022/01/25 03:32:04;;;;;;;29.00;18.00;;;5.20;99.90;;;;;;5082118;28;20284;-39
2022/01/25 03:34:30;;;;;;;27.10;17.90;;;5.20;99.90;;;;;;5088891;28;20275;-40
2022/01/25 03:36:55;;;;;;;28.20;18.30;;;5.30;99.90;;;;;;5089731;28;20521;-40
2022/01/25 03:39:22;;;;;;;28.40;18.20;;;5.10;99.90;;;;;;5090716;28;20231;-39
2022/01/25 03:41:48;;;;;;;25.23;18.27;;;5.30;99.90;;;;;;5089613;28;20200;-40
2022/01/25 03:44:16;;;;;;;25.63;17.67;;;5.20;99.90;;;;;;5088868;28;20986;-39
2022/01/25 03:51:58;;;;;;;28.70;17.40;;;5.00;99.90;;;;;;5084255;28;20805;-40
2022/01/25 03:54:24;;;;;;;23.90;17.10;;;5.30;99.90;;;;;;5088966;28;20422;-40
2022/01/25 03:56:51;;;;;;;28.90;17.67;;;5.20;99.90;;;;;;5089781;28;20283;-40
2022/01/25 03:59:17;;;;;;;28.70;19.80;;;5.20;99.90;;;;;;5090355;28;20199;-39
2022/01/25 04:01:43;;;;;;;25.80;17.57;;;5.20;99.90;;;;;;5084240;28;20435;-39
2022/01/25 04:04:12;;;;;;;27.00;17.73;;;5.20;99.90;;;;;;5087890;28;20180;-39
2022/01/25 04:06:42;;;;;;;29.33;19.40;;;5.10;99.90;;;;;;5090005;28;20537;-39
2022/01/25 04:09:08;;;;;;;23.00;16.97;;;5.10;99.90;;;;;;5089781;28;21020;-41
2022/01/25 04:11:36;;;;;;;28.10;18.03;;;5.10;99.90;;;;;;5089398;28;20418;-39
2022/01/25 04:14:02;;;;;;;25.40;17.37;;;5.30;99.90;;;;;;5076436;28;20468;-39
2022/01/25 04:16:33;;;;;;;28.33;19.50;;;5.30;99.90;;;;;;5084935;28;20437;-40
2022/01/25 04:27:11;;;;;;;27.13;17.67;;;5.20;99.90;;;;;;5089851;28;20415;-39
2022/01/25 04:29:37;;;;;;;27.00;17.40;;;4.90;99.90;;;;;;5089296;28;20829;-39
2022/01/25 04:32:06;;;;;;;28.87;19.50;;;5.10;99.90;;;;;;5082028;28;20518;-40
2022/01/25 04:55:57;;;;;;;25.63;16.87;;;5.30;99.90;;;;;;5087071;28;20425;-41
2022/01/25 04:58:35;;;;;;;28.47;17.03;;;5.10;99.90;;;;;;5088080;28;20215;-39
2022/01/25 05:01:00;;;;;;;26.00;18.10;;;5.10;99.90;;;;;;5087971;28;20461;-40
2022/01/25 05:03:37;;;;;;;29.27;18.63;;;5.00;99.90;;;;;;5076286;28;20762;-40
2022/01/25 05:06:12;;;;;;;29.13;16.90;;;4.80;99.90;;;;;;5083243;28;20527;-41
2022/01/25 05:08:43;;;;;;;29.80;18.10;;;5.00;99.90;;;;;;5088920;28;20422;-39
2022/01/25 05:11:15;;;;;;;28.33;17.77;;;4.90;99.90;;;;;;5087824;28;20521;-40
2022/01/25 05:13:51;;;;;;;25.80;16.87;;;5.00;99.90;;;;;;5088611;28;20435;-39
2022/01/25 05:16:32;;;;;;;29.60;18.30;;;5.00;99.90;;;;;;5088383;28;20422;-39
2022/01/25 05:19:19;;;;;;;25.70;17.10;;;5.10;99.90;;;;;;5078858;28;20522;-39
2022/01/25 05:24:35;;;;;;;24.83;17.07;;;5.10;99.90;;;;;;5088316;28;20418;-39
2022/01/25 05:27:01;;;;;;;28.73;18.50;;;5.20;99.90;;;;;;5083670;28;20457;-40
2022/01/25 05:29:26;;;;;;;26.67;17.37;;;5.30;99.90;;;;;;5088171;28;20475;-39
2022/01/25 05:31:52;;;;;;;27.33;17.47;;;5.30;99.90;;;;;;5078665;28;20415;-40
2022/01/25 05:34:18;;;;;;;24.60;17.13;;;5.20;99.90;;;;;;5080607;28;20184;-39
2022/01/25 05:36:44;;;;;;;31.23;19.17;;;5.10;99.90;;;;;;5087971;28;20655;-39
2022/01/25 05:39:24;;;;;;;28.07;19.27;;;5.20;99.90;;;;;;5087989;28;20192;-41
2022/01/25 05:41:59;;;;;;;27.10;17.70;;;5.10;99.90;;;;;;5085505;28;20461;-39
2022/01/25 05:44:38;;;;;;;32.20;19.90;;;4.90;99.90;;;;;;5086974;28;20562;-40
2022/01/25 05:47:06;;;;;;;33.80;19.80;;;4.90;99.90;;;;;;5084884;28;20434;-39
2022/01/25 05:49:35;;;;;;;27.53;18.27;;;4.90;99.90;;;;;;5078248;28;20669;-39
2022/01/25 05:52:04;;;;;;;39.47;20.80;;;4.80;99.90;;;;;;5087670;28;20418;-39
2022/01/25 05:54:29;;;;;;;35.80;21.23;;;5.00;99.90;;;;;;5087588;28;20434;-40
2022/01/25 05:56:55;;;;;;;33.73;20.00;;;4.90;99.90;;;;;;5083876;28;20454;-42
2022/01/25 05:59:21;;;;;;;32.70;19.17;;;4.80;99.90;;;;;;5086864;28;20195;-40
2022/01/25 06:01:46;;;;;;;35.73;21.93;;;5.00;99.90;;;;;;5086927;28;20176;-39
2022/01/25 06:04:13;;;;;;;29.07;18.90;;;5.00;99.90;;;;;;5074395;28;20349;-39
2022/01/25 06:06:38;;;;;;;29.97;19.63;;;5.20;99.90;;;;;;5087826;28;20426;-40
2022/01/25 06:09:04;;;;;;;25.20;17.80;;;5.10;99.90;;;;;;5087508;28;20498;-39
2022/01/25 06:11:30;;;;;;;26.90;17.37;;;5.00;99.90;;;;;;5086950;28;20203;-40
2022/01/25 06:13:55;;;;;;;33.57;19.13;;;5.00;99.90;;;;;;5086653;28;20196;-40
2022/01/25 06:16:21;;;;;;;29.13;18.97;;;5.20;99.90;;;;;;5087254;28;20203;-39
2022/01/25 06:18:47;;;;;;;30.93;20.30;;;5.00;99.90;;;;;;5077872;28;20228;-40
2022/01/25 06:21:13;;;;;;;30.33;18.60;;;5.10;99.90;;;;;;5086932;28;20212;-40
2022/01/25 06:23:38;;;;;;;27.17;17.70;;;5.10;99.90;;;;;;5087229;28;20180;-40
2022/01/25 06:26:04;;;;;;;28.43;19.40;;;4.80;99.90;;;;;;5087281;28;20788;-40
2022/01/25 06:28:30;;;;;;;32.80;20.73;;;5.00;99.90;;;;;;5087330;28;20623;-41
2022/01/25 06:30:55;;;;;;;29.20;17.90;;;4.60;99.90;;;;;;5086656;28;20190;-39
2022/01/25 06:33:21;;;;;;;32.23;20.10;;;4.70;99.90;;;;;;5081225;28;20653;-40
2022/01/25 06:35:48;;;;;;;32.47;18.77;;;4.90;99.90;;;;;;5087132;28;20188;-39
2022/01/25 06:38:14;;;;;;;29.00;18.67;;;4.90;99.90;;;;;;5087361;28;20184;-40
2022/01/25 06:40:40;;;;;;;31.97;19.90;;;5.00;99.90;;;;;;5086399;28;20456;-40
2022/01/25 06:43:06;;;;;;;28.80;18.50;;;4.80;99.90;;;;;;5086358;28;20513;-41
2022/01/25 06:45:31;;;;;;;27.97;17.70;;;4.60;99.90;;;;;;5086495;28;20242;-40
2022/01/25 06:47:57;;;;;;;29.67;18.83;;;4.70;99.90;;;;;;5080841;28;20538;-39
2022/01/25 06:50:23;;;;;;;28.17;18.27;;;4.80;99.90;;;;;;5078747;28;20312;-39
2022/01/25 06:52:50;;;;;;;31.43;19.00;;;4.90;99.90;;;;;;5078549;28;20185;-40
2022/01/25 06:55:18;;;;;;;28.90;17.47;;;5.10;99.90;;;;;;5082858;28;20433;-41
2022/01/25 06:57:45;;;;;;;30.63;18.73;;;4.70;99.90;;;;;;5086402;28;20883;-39
2022/01/25 07:00:14;;;;;;;29.30;18.57;;;5.00;99.90;;;;;;5086132;28;20972;-39
2022/01/25 07:02:40;;;;;;;26.47;18.60;;;5.00;99.90;;;;;;5083976;28;20439;-40
2022/01/25 07:05:07;;;;;;;26.13;17.33;;;5.00;99.90;;;;;;5080935;28;20908;-40
2022/01/25 07:07:33;;;;;;;29.33;18.87;;;5.00;99.90;;;;;;5085600;28;20188;-40
2022/01/25 07:09:59;;;;;;;30.50;18.53;;;4.90;99.90;;;;;;5085011;28;20430;-41
2022/01/25 07:12:24;;;;;;;31.93;19.90;;;4.70;99.90;;;;;;5086402;28;20181;-40
2022/01/25 07:14:50;;;;;;;36.30;20.50;;;5.00;99.90;;;;;;5086365;28;20393;-39
2022/01/25 07:17:16;;;;;;;41.67;22.77;;;5.00;99.90;;;;;;5086605;28;20237;-39
2022/01/25 07:19:42;;;;;;;34.23;20.77;;;5.00;99.90;;;;;;5079150;28;20223;-39
2022/01/25 07:22:08;;;;;;;31.70;19.40;;;4.90;99.90;;;;;;5086622;28;20940;-39
2022/01/25 07:24:34;;;;;;;35.50;20.80;;;5.10;99.90;;;;;;5087131;28;20219;-40
2022/01/25 07:27:00;;;;;;;33.63;20.20;;;5.00;99.90;;;;;;5078692;28;20481;-40
2022/01/25 07:29:26;;;;;;;30.13;19.77;;;4.70;99.90;;;;;;5088671;28;20893;-40
2022/01/25 07:31:53;;;;;;;31.20;19.83;;;4.70;99.90;;;;;;5091006;28;20205;-40
2022/01/25 07:34:19;;;;;;;28.53;18.93;;;4.50;99.90;;;;;;5084263;28;20426;-40
2022/01/25 07:36:44;;;;;;;33.27;21.30;;;4.80;99.90;;;;;;5089979;28;20437;-39
2022/01/25 07:39:10;;;;;;;30.60;19.40;;;5.10;99.90;;;;;;5089698;28;20413;-39
2022/01/25 07:41:37;;;;;;;32.03;19.87;;;4.80;99.90;;;;;;5088723;28;20686;-39
2022/01/25 07:44:03;;;;;;;29.80;19.73;;;5.00;99.90;;;;;;5088366;28;20415;-40
2022/01/25 07:46:29;;;;;;;30.00;19.63;;;5.10;99.90;;;;;;5089881;28;20548;-39
2022/01/25 07:48:56;;;;;;;31.17;19.30;;;5.00;99.90;;;;;;5087665;28;21085;-39
2022/01/25 07:51:22;;;;;;;30.60;19.60;;;5.10;99.90;;;;;;5089145;28;20758;-40
2022/01/25 07:53:49;;;;;;;28.63;18.53;;;4.90;99.90;;;;;;5089653;28;20415;-39
2022/01/25 07:56:15;;;;;;;31.07;19.87;;;5.20;99.90;;;;;;5089514;28;20445;-39
2022/01/25 07:58:41;;;;;;;28.30;18.23;;;5.30;99.90;;;;;;5086873;28;20406;-39
2022/01/25 08:01:07;;;;;;;28.80;19.00;;;5.40;99.90;;;;;;5090429;28;21014;-40
2022/01/25 08:03:32;;;;;;;31.33;18.13;;;5.10;99.90;;;;;;5084642;28;20432;-42
2022/01/25 08:05:58;;;;;;;31.27;18.60;;;5.00;99.90;;;;;;5089564;28;20188;-40
2022/01/25 08:08:24;;;;;;;32.13;19.70;;;5.00;99.90;;;;;;5089585;28;20371;-40
2022/01/25 08:10:50;;;;;;;29.30;19.27;;;4.90;99.90;;;;;;5089301;28;20563;-39
2022/01/25 08:13:15;;;;;;;28.87;19.40;;;5.00;99.90;;;;;;5089350;28;20198;-40
2022/01/25 08:15:41;;;;;;;37.97;20.40;;;4.80;99.90;;;;;;5089947;28;20235;-40
2022/01/25 08:18:07;;;;;;;31.60;19.60;;;4.60;99.90;;;;;;5087549;28;20242;-40
2022/01/25 08:20:33;;;;;;;34.60;21.27;;;4.90;99.90;;;;;;5081169;28;20581;-39
2022/01/25 08:22:59;;;;;;;32.50;19.70;;;4.80;99.90;;;;;;5088627;28;20940;-40
2022/01/25 08:25:25;;;;;;;32.50;21.10;;;4.70;99.90;;;;;;5082282;28;20422;-42
2022/01/25 08:27:50;;;;;;;28.83;18.50;;;4.70;99.90;;;;;;5082879;28;20418;-39
2022/01/25 08:30:16;;;;;;;29.93;19.57;;;4.70;99.90;;;;;;5088860;28;20457;-39
2022/01/25 08:32:42;;;;;;;28.73;17.73;;;4.60;99.90;;;;;;5089623;28;20604;-39
2022/01/25 08:35:09;;;;;;;33.00;18.63;;;5.00;99.90;;;;;;5084056;28;20535;-39
2022/01/25 08:37:35;;;;;;;31.13;20.03;;;4.80;99.90;;;;;;5088482;28;20406;-39
2022/01/25 08:40:03;;;;;;;28.63;17.53;;;4.80;99.90;;;;;;5088568;28;20477;-39
2022/01/25 08:42:28;;;;;;;29.87;18.87;;;4.80;99.90;;;;;;5088396;28;20501;-39
2022/01/25 08:44:54;;;;;;;30.30;19.00;;;4.90;99.90;;;;;;5089304;28;20513;-40
2022/01/25 08:47:20;;;;;;;27.77;18.30;;;5.10;99.90;;;;;;5089283;28;20422;-39
2022/01/25 08:49:46;;;;;;;28.23;18.77;;;5.10;99.90;;;;;;5080819;28;20188;-39
2022/01/25 08:52:11;;;;;;;31.37;20.23;;;4.90;99.90;;;;;;5088991;28;20200;-41
2022/01/25 08:54:37;;;;;;;30.80;19.10;;;4.80;99.90;;;;;;5089216;28;20185;-39
2022/01/25 08:57:04;;;;;;;27.43;18.73;;;4.70;99.90;;;;;;5088558;28;20230;-40
2022/01/25 08:59:29;;;;;;;31.60;19.80;;;4.80;99.90;;;;;;5089003;28;20847;-39
2022/01/25 09:01:55;;;;;;;28.30;19.93;;;4.80;99.90;;;;;;5088176;28;20454;-39
2022/01/25 09:04:21;;;;;;;32.43;22.00;;;5.00;99.90;;;;;;5081106;28;21030;-40
2022/01/25 09:06:47;;;;;;;29.10;19.80;;;4.60;99.90;;;;;;5088624;28;20229;-39
2022/01/25 09:09:14;;;;;;;32.70;19.10;;;4.90;99.90;;;;;;5083707;28;20768;-39
2022/01/25 09:11:41;;;;;;;27.63;18.27;;;4.90;99.90;;;;;;5088057;28;20674;-40
2022/01/25 09:14:08;;;;;;;27.20;17.70;;;5.00;99.90;;;;;;5088666;28;20787;-39
2022/01/25 09:16:35;;;;;;;24.60;17.53;;;5.00;99.90;;;;;;5088393;28;20419;-41
2022/01/25 09:19:01;;;;;;;25.93;17.67;;;5.10;99.90;;;;;;5082086;28;20439;-39
2022/01/25 09:21:27;;;;;;;25.33;16.20;;;4.90;99.90;;;;;;5083021;28;20461;-40
2022/01/25 09:23:54;;;;;;;26.73;18.70;;;4.90;99.90;;;;;;5088360;28;20257;-39
2022/01/25 09:26:21;;;;;;;29.23;17.27;;;5.10;99.90;;;;;;5088611;28;20422;-39
2022/01/25 09:28:47;;;;;;;26.10;16.97;;;4.90;99.90;;;;;;5088514;28;20430;-41
2022/01/25 09:31:13;;;;;;;28.10;19.47;;;4.80;99.90;;;;;;5087722;28;20453;-39
2022/01/25 09:33:38;;;;;;;33.27;20.60;;;5.10;99.90;;;;;;5085311;28;20456;-40
2022/01/25 09:36:04;;;;;;;33.10;21.20;;;4.70;99.90;;;;;;5076854;28;20185;-41
2022/01/25 09:38:31;;;;;;;30.63;19.93;;;4.70;99.90;;;;;;5088034;28;20281;-41
2022/01/25 09:40:57;;;;;;;32.63;20.50;;;4.90;99.90;;;;;;5086297;28;20461;-40
2022/01/25 09:43:24;;;;;;;32.90;19.67;;;4.70;99.90;;;;;;5087216;28;20433;-39
2022/01/25 09:45:50;;;;;;;33.23;20.87;;;4.80;99.90;;;;;;5088352;28;20450;-39
2022/01/25 09:48:16;;;;;;;33.73;21.27;;;4.70;99.90;;;;;;5087807;28;20410;-39
2022/01/25 09:50:42;;;;;;;32.27;20.30;;;4.90;99.90;;;;;;5075689;28;20819;-39
2022/01/25 09:53:08;;;;;;;28.97;19.93;;;4.60;99.90;;;;;;5087496;28;20430;-39
2022/01/25 09:55:36;;;;;;;34.00;20.80;;;4.80;99.90;;;;;;5087882;28;20191;-40
2022/01/25 09:58:03;;;;;;;37.80;21.17;;;5.10;99.90;;;;;;5087578;28;20928;-40
2022/01/25 10:00:30;;;;;;;36.23;22.80;;;4.80;99.90;;;;;;5087439;28;20466;-40
2022/01/25 10:05:37;;;;;;;33.70;21.13;;;4.80;99.90;;;;;;5079532;28;20496;-40
2022/01/25 10:08:10;;;;;;;30.50;20.00;;;4.70;99.90;;;;;;5087872;28;20426;-40
2022/01/25 10:10:44;;;;;;;31.63;20.73;;;5.00;99.90;;;;;;5087192;28;20571;-40
2022/01/25 10:13:18;;;;;;;33.33;21.07;;;5.00;99.90;;;;;;5087606;28;20488;-40
2022/01/25 10:15:45;;;;;;;33.80;20.57;;;5.00;99.90;;;;;;5074717;28;20426;-39
2022/01/25 10:18:11;;;;;;;34.57;21.80;;;5.10;99.90;;;;;;5087577;28;20414;-39
2022/01/25 10:20:40;;;;;;;34.10;21.50;;;4.90;99.90;;;;;;5073809;28;21003;-39
2022/01/25 10:23:18;;;;;;;34.13;21.97;;;4.70;99.90;;;;;;5087662;28;20828;-42
2022/01/25 10:25:47;;;;;;;38.97;23.00;;;4.70;99.90;;;;;;5087661;28;20407;-39
2022/01/25 10:28:15;;;;;;;33.00;21.40;;;5.00;99.90;;;;;;5087945;28;20410;-39
2022/01/25 10:30:47;;;;;;;36.03;19.70;;;5.00;99.90;;;;;;5086830;28;20731;-39
2022/01/25 10:33:19;;;;;;;43.37;22.70;;;4.80;99.90;;;;;;5087430;28;20420;-40
2022/01/25 10:35:45;;;;;;;36.23;19.63;;;5.00;99.90;;;;;;5077903;28;20423;-41
2022/01/25 10:38:25;;;;;;;37.10;23.97;;;5.00;99.90;;;;;;5086167;28;20555;-39
2022/01/25 10:41:07;;;;;;;35.77;21.50;;;5.00;99.90;;;;;;5086564;28;20210;-40
2022/01/25 10:43:34;;;;;;;38.23;22.77;;;4.90;99.90;;;;;;5086812;28;20425;-40
2022/01/25 10:46:16;;;;;;;38.27;23.07;;;5.00;99.90;;;;;;5086872;28;20494;-39
2022/01/25 10:48:53;;;;;;;39.23;20.70;;;5.00;99.90;;;;;;5087569;28;20792;-40
2022/01/25 10:51:21;;;;;;;37.47;21.77;;;5.00;99.90;;;;;;5075288;28;20483;-39
2022/01/25 10:54:00;;;;;;;40.73;24.10;;;4.80;99.90;;;;;;5087260;28;20448;-39
2022/01/25 10:56:32;;;;;;;35.33;21.93;;;4.90;99.90;;;;;;5085732;28;20474;-39
2022/01/25 10:59:01;;;;;;;37.37;21.90;;;5.00;99.90;;;;;;5087272;28;20413;-40
2022/01/25 11:01:38;;;;;;;34.83;20.57;;;5.00;99.90;;;;;;5089476;28;20476;-40
2022/01/25 11:04:10;;;;;;;32.00;21.90;;;4.90;99.90;;;;;;5091088;28;20935;-40
2022/01/25 11:06:36;;;;;;;32.40;20.67;;;5.10;99.90;;;;;;5083492;28;20421;-39
2022/01/25 11:09:05;;;;;;;33.67;21.30;;;5.20;99.90;;;;;;5091030;28;20422;-39
2022/01/25 11:11:37;;;;;;;35.03;20.80;;;5.40;99.90;;;;;;5090810;28;20418;-39
2022/01/25 11:16:49;;;;;;;36.03;23.00;;;5.20;99.90;;;;;;5091020;28;20520;-39
2022/01/25 11:19:16;;;;;;;38.00;22.30;;;5.10;99.90;;;;;;5091290;28;20426;-40
2022/01/25 11:21:43;;;;;;;32.23;20.67;;;5.10;99.90;;;;;;5073971;28;20866;-39
2022/01/25 11:24:12;;;;;;;33.60;20.97;;;5.10;99.90;;;;;;5091096;28;20950;-39
2022/01/25 11:26:40;;;;;;;36.80;20.20;;;5.30;99.90;;;;;;5090511;28;20422;-39
2022/01/25 11:29:07;;;;;;;34.57;21.07;;;5.20;99.90;;;;;;5090501;28;20422;-39
2022/01/25 11:31:36;;;;;;;32.20;19.10;;;5.40;99.90;;;;;;5089912;28;20505;-39
2022/01/25 11:34:05;;;;;;;30.27;18.37;;;5.20;99.90;;;;;;5090985;28;20789;-39
2022/01/25 11:36:45;;;;;;;35.30;20.23;;;5.40;99.90;;;;;;5079160;28;20537;-40
2022/01/25 11:39:15;;;;;;;35.77;20.50;;;5.20;99.90;;;;;;5086334;28;20414;-39
2022/01/25 11:41:42;;;;;;;33.07;19.70;;;5.40;99.90;;;;;;5089831;28;20457;-40
2022/01/25 11:44:16;;;;;;;34.57;20.43;;;5.40;99.90;;;;;;5089440;28;20510;-39
2022/01/25 11:46:47;;;;;;;37.10;22.10;;;5.30;99.90;;;;;;5090457;28;20418;-39
2022/01/25 11:49:19;;;;;;;30.50;19.60;;;5.50;99.90;;;;;;5090246;28;20429;-40
2022/01/25 11:52:04;;;;;;;34.10;20.40;;;5.50;99.90;;;;;;5078213;28;20487;-40
2022/01/25 11:54:30;;;;;;;33.33;19.70;;;5.20;99.90;;;;;;5089976;28;20432;-40
2022/01/25 11:57:10;;;;;;;32.50;18.87;;;5.10;99.90;;;;;;5090296;28;20434;-39
2022/01/25 11:59:37;;;;;;;31.80;19.80;;;5.00;99.90;;;;;;5088192;28;20418;-39
2022/01/25 12:02:03;;;;;;;34.40;20.37;;;5.30;99.90;;;;;;5089846;28;20568;-39
2022/01/25 12:04:29;;;;;;;32.47;18.70;;;5.40;99.90;;;;;;5089813;28;20517;-40
2022/01/25 12:07:08;;;;;;;34.00;20.30;;;5.20;99.90;;;;;;5080134;28;20438;-40
2022/01/25 12:09:48;;;;;;;34.00;19.60;;;5.20;99.90;;;;;;5089403;28;20430;-39
2022/01/25 12:12:15;;;;;;;29.87;18.27;;;5.20;99.90;;;;;;5088526;28;20427;-39
2022/01/25 12:14:51;;;;;;;36.13;20.80;;;5.30;99.90;;;;;;5089696;28;20433;-39
2022/01/25 12:17:25;;;;;;;34.53;20.20;;;5.00;99.90;;;;;;5088602;28;20956;-40
2022/01/25 12:20:00;;;;;;;36.27;20.53;;;5.20;99.90;;;;;;5087186;28;20496;-40
2022/01/25 12:25:06;;;;;;;37.53;20.10;;;5.00;99.90;;;;;;5089396;28;20693;-39
2022/01/25 12:27:47;;;;;;;31.27;19.23;;;5.10;99.90;;;;;;5089669;28;20820;-40
2022/01/25 12:30:41;;;;;;;40.47;22.27;;;4.90;99.90;;;;;;5088824;28;20418;-40
2022/01/25 12:33:09;;;;;;;37.13;21.87;;;5.00;99.90;;;;;;5089527;28;20967;-40
2022/01/25 12:35:45;;;;;;;35.77;21.83;;;4.90;99.90;;;;;;5066136;28;20435;-39
2022/01/25 12:38:18;;;;;;;32.20;20.10;;;5.00;99.90;;;;;;5085862;28;20421;-39
2022/01/25 12:40:58;;;;;;;35.83;20.10;;;5.20;99.90;;;;;;5081886;28;20470;-39
2022/01/25 12:43:29;;;;;;;32.77;18.97;;;5.10;99.90;;;;;;5076923;28;20434;-39
2022/01/25 12:46:01;;;;;;;32.63;19.07;;;5.30;99.90;;;;;;5088936;28;20479;-39
2022/01/25 12:48:36;;;;;;;33.47;19.87;;;5.20;99.90;;;;;;5089386;28;20530;-39
2022/01/25 12:51:06;;;;;;;33.17;20.10;;;5.20;99.90;;;;;;5080418;28;20446;-40
2022/01/25 12:53:34;;;;;;;33.30;20.27;;;5.20;99.90;;;;;;5087647;28;20431;-39
2022/01/25 12:56:06;;;;;;;31.87;19.60;;;5.30;99.90;;;;;;5088821;28;20462;-40
2022/01/25 12:58:33;;;;;;;33.10;19.20;;;5.40;99.90;;;;;;5088849;28;20429;-40
2022/01/25 13:01:03;;;;;;;31.70;18.67;;;5.30;99.90;;;;;;5075056;28;20512;-39
2022/01/25 13:03:32;;;;;;;31.60;19.50;;;5.30;99.90;;;;;;5088945;28;20429;-40
2022/01/25 13:06:12;;;;;;;33.93;20.40;;;5.30;99.90;;;;;;5079181;28;20446;-39
2022/01/25 13:08:54;;;;;;;31.70;18.17;;;5.30;99.90;;;;;;5088617;28;20417;-39
2022/01/25 13:11:28;;;;;;;34.47;20.93;;;5.20;99.90;;;;;;5087972;28;20721;-39
2022/01/25 13:17:02;;;;;;;33.70;19.30;;;5.40;99.90;;;;;;5088830;28;20915;-39
2022/01/25 13:19:37;;;;;;;34.30;18.83;;;5.30;99.90;;;;;;5080637;28;20426;-40
2022/01/25 13:22:11;;;;;;;42.97;20.47;;;5.30;99.90;;;;;;5078423;28;20570;-39
2022/01/25 13:24:54;;;;;;;35.93;19.57;;;5.10;99.90;;;;;;5087964;28;20494;-41
2022/01/25 13:27:21;;;;;;;34.77;20.47;;;5.10;99.90;;;;;;5088372;28;20798;-40
2022/01/25 13:32:50;;;;;;;35.37;21.67;;;5.00;99.90;;;;;;5088188;28;20423;-40
2022/01/25 13:35:21;;;;;;;34.07;19.20;;;5.10;99.90;;;;;;5087207;28;20448;-40
2022/01/25 13:38:23;;;;;;;34.80;19.93;;;5.20;99.90;;;;;;5083018;28;20485;-40
2022/01/25 13:46:29;;;;;;;30.53;17.00;;;5.20;99.90;;;;;;5087675;28;20742;-40
2022/01/25 13:49:04;;;;;;;27.03;17.13;;;5.50;99.90;;;;;;5087822;28;20736;-39
2022/01/25 13:51:38;;;;;;;32.37;18.83;;;5.30;99.90;;;;;;5078850;28;20864;-39
2022/01/25 13:54:03;;;;;;;29.20;16.73;;;5.30;99.90;;;;;;5083112;28;20437;-39
2022/01/25 13:56:32;;;;;;;32.87;17.13;;;5.20;99.90;;;;;;5086488;28;20549;-40
2022/01/25 13:59:00;;;;;;;31.67;18.30;;;5.40;99.90;;;;;;5087494;28;20200;-39
2022/01/25 14:01:27;;;;;;;31.47;18.83;;;5.10;99.90;;;;;;5087251;28;20972;-39
2022/01/25 14:04:02;;;;;;;33.20;18.07;;;5.20;99.90;;;;;;5087595;28;20482;-39
2022/01/25 14:06:41;;;;;;;31.80;18.40;;;5.20;99.90;;;;;;5078552;28;20435;-42
2022/01/25 14:09:27;;;;;;;32.23;17.80;;;5.00;99.90;;;;;;5086351;28;20410;-39
2022/01/25 14:23:21;;;;;;;31.33;16.80;;;5.20;99.90;;;;;;5075145;28;20426;-41
2022/01/25 14:25:48;;;;;;;33.97;19.13;;;5.00;99.90;;;;;;5079574;28;20426;-40
2022/01/25 14:28:22;;;;;;;32.83;18.20;;;5.10;99.90;;;;;;5087215;28;20525;-40
2022/01/25 14:30:51;;;;;;;33.90;18.67;;;5.30;99.90;;;;;;5086737;28;20467;-40
2022/01/25 14:33:22;;;;;;;28.60;16.40;;;5.00;99.90;;;;;;5087602;28;20440;-40
2022/01/25 14:36:00;;;;;;;33.83;19.47;;;5.00;99.90;;;;;;5083994;28;20426;-39
2022/01/25 14:38:32;;;;;;;28.67;17.50;;;5.00;99.90;;;;;;5078339;28;21014;-39
2022/01/25 14:41:09;;;;;;;31.47;18.00;;;5.00;99.90;;;;;;5086444;28;20809;-41
2022/01/25 14:43:46;;;;;;;33.20;19.10;;;5.10;99.90;;;;;;5085895;28;20429;-40
2022/01/25 14:46:26;;;;;;;33.30;17.90;;;5.10;99.90;;;;;;5087168;28;20619;-40
2022/01/25 14:49:26;;;;;;;31.83;19.17;;;5.10;99.90;;;;;;5087088;28;20438;-39
2022/01/25 14:51:59;;;;;;;32.63;18.47;;;5.30;99.90;;;;;;5061018;28;20481;-39
2022/01/25 14:54:34;;;;;;;28.23;17.93;;;5.00;99.90;;;;;;5086058;28;20418;-39
2022/01/25 14:57:05;;;;;;;37.27;18.53;;;5.10;99.90;;;;;;5087268;28;20445;-39
2022/01/25 14:59:38;;;;;;;33.57;19.10;;;5.40;99.90;;;;;;5087472;28;20497;-40
2022/01/25 15:02:17;;;;;;;34.20;19.33;;;5.10;99.90;;;;;;5086775;28;20426;-39
2022/01/25 15:04:50;;;;;;;34.93;19.17;;;5.20;99.90;;;;;;5087469;28;20475;-39
2022/01/25 15:07:22;;;;;;;31.00;18.27;;;5.10;99.90;;;;;;5078061;28;20422;-41
2022/01/25 15:09:58;;;;;;;36.57;19.77;;;5.30;99.90;;;;;;5081023;28;20866;-40